createdAt,value
2019-02-19T00:00:38.862Z,3.70
2019-02-19T00:03:07.274Z,3.70
2019-02-19T00:05:35.697Z,3.70
2019-02-19T00:08:04.149Z,3.60
2019-02-19T00:10:32.545Z,3.60
2019-02-19T00:13:00.956Z,3.60
2019-02-19T00:15:29.428Z,3.60
2019-02-19T00:17:57.832Z,3.60
2019-02-19T00:20:26.242Z,3.60
2019-02-19T00:22:54.645Z,3.60
2019-02-19T00:25:23.047Z,3.60
2019-02-19T00:27:51.484Z,3.60
2019-02-19T00:30:19.880Z,3.50
2019-02-19T00:32:48.284Z,3.50
2019-02-19T00:35:16.717Z,3.50
2019-02-19T00:37:45.120Z,3.50
2019-02-19T00:40:13.548Z,3.50
2019-02-19T00:42:42.016Z,3.50
2019-02-19T00:45:16.460Z,3.50
2019-02-19T00:47:40.508Z,3.50
2019-02-19T00:50:08.917Z,3.50
2019-02-19T00:52:37.412Z,3.50
2019-02-19T00:55:06.355Z,3.50
2019-02-19T00:57:34.757Z,3.50
2019-02-19T01:00:03.629Z,3.50
2019-02-19T01:02:32.024Z,3.50
2019-02-19T01:05:00.460Z,3.50
2019-02-19T01:07:28.863Z,3.50
2019-02-19T01:09:57.264Z,3.50
2019-02-19T01:12:25.676Z,3.50
2019-02-19T01:14:54.140Z,3.60
2019-02-19T01:17:22.593Z,3.60
2019-02-19T01:19:50.969Z,3.60
2019-02-19T01:22:19.476Z,3.60
2019-02-19T01:24:47.956Z,3.70
2019-02-19T01:27:16.469Z,3.60
2019-02-19T01:29:44.903Z,3.70
2019-02-19T01:32:13.369Z,3.70
2019-02-19T01:34:41.768Z,3.70
2019-02-19T01:37:10.180Z,3.70
2019-02-19T01:39:38.589Z,3.80
2019-02-19T01:42:07.091Z,3.80
2019-02-19T01:44:35.481Z,3.80
2019-02-19T01:47:03.894Z,3.80
2019-02-19T01:49:32.307Z,3.80
2019-02-19T01:52:00.706Z,3.80
2019-02-19T01:54:29.145Z,3.80
2019-02-19T01:56:57.546Z,3.90
2019-02-19T01:59:25.932Z,3.80
2019-02-19T02:01:54.340Z,3.90
2019-02-19T02:04:22.740Z,3.90
2019-02-19T02:06:51.172Z,3.90
2019-02-19T02:09:19.648Z,3.90
2019-02-19T02:11:48.054Z,3.90
2019-02-19T02:14:16.466Z,3.90
2019-02-19T02:16:44.864Z,3.90
2019-02-19T02:19:13.313Z,3.90
2019-02-19T02:21:41.718Z,3.90
2019-02-19T02:24:10.092Z,3.90
2019-02-19T02:26:38.497Z,3.90
2019-02-19T02:29:06.904Z,3.90
2019-02-19T02:31:35.349Z,3.90
2019-02-19T02:34:03.751Z,3.90
2019-02-19T02:36:32.279Z,3.90
2019-02-19T02:39:00.853Z,3.90
2019-02-19T02:41:29.319Z,3.90
2019-02-19T02:43:57.779Z,3.90
2019-02-19T02:46:26.186Z,3.90
2019-02-19T02:48:54.584Z,3.90
2019-02-19T02:51:22.993Z,3.90
2019-02-19T02:53:51.412Z,3.90
2019-02-19T02:56:19.878Z,3.80
2019-02-19T02:58:48.265Z,3.80
2019-02-19T03:01:16.684Z,3.80
2019-02-19T03:03:45.077Z,3.80
2019-02-19T03:06:17.933Z,3.80
2019-02-19T03:08:46.445Z,3.80
2019-02-19T03:11:14.849Z,3.70
2019-02-19T03:13:43.269Z,3.80
2019-02-19T03:16:11.753Z,3.80
2019-02-19T03:18:40.160Z,3.80
2019-02-19T03:21:08.593Z,3.70
2019-02-19T03:23:37.004Z,3.80
2019-02-19T03:26:05.409Z,3.70
2019-02-19T03:28:33.826Z,3.70
2019-02-19T03:31:02.305Z,3.70
2019-02-19T03:33:30.738Z,3.70
2019-02-19T03:35:59.144Z,3.70
2019-02-19T03:38:27.548Z,3.70
2019-02-19T03:40:55.958Z,3.60
2019-02-19T03:43:24.356Z,3.60
2019-02-19T03:45:52.792Z,3.60
2019-02-19T03:48:21.204Z,3.70
2019-02-19T03:50:49.609Z,3.60
2019-02-19T03:53:18.019Z,3.60
2019-02-19T03:55:46.492Z,3.60
2019-02-19T03:58:14.920Z,3.60
2019-02-19T04:00:43.329Z,3.60
2019-02-19T04:03:11.732Z,3.60
2019-02-19T04:05:40.144Z,3.60
2019-02-19T04:08:08.553Z,3.60
2019-02-19T04:10:37.054Z,3.60
2019-02-19T04:13:05.466Z,3.60
2019-02-19T04:15:34.040Z,3.50
2019-02-19T04:18:02.500Z,3.50
2019-02-19T04:20:30.952Z,3.50
2019-02-19T04:22:59.397Z,3.50
2019-02-19T04:25:27.796Z,3.50
2019-02-19T04:27:56.199Z,3.50
2019-02-19T04:30:24.665Z,3.50
2019-02-19T04:32:53.065Z,3.50
2019-02-19T04:35:21.505Z,3.50
2019-02-19T04:37:49.905Z,3.50
2019-02-19T04:40:18.308Z,3.50
2019-02-19T04:42:46.717Z,3.50
2019-02-19T04:45:15.130Z,3.50
2019-02-19T04:47:43.596Z,3.50
2019-02-19T04:50:12.053Z,3.50
2019-02-19T04:52:40.502Z,3.50
2019-02-19T04:55:09.036Z,3.50
2019-02-19T04:57:37.439Z,3.50
2019-02-19T05:00:09.440Z,3.50
2019-02-19T05:02:38.141Z,3.50
2019-02-19T05:05:07.938Z,3.50
2019-02-19T05:07:37.006Z,3.50
2019-02-19T05:10:08.373Z,3.50
2019-02-19T05:12:36.805Z,3.50
2019-02-19T05:15:08.521Z,3.40
2019-02-19T05:17:39.078Z,3.50
2019-02-19T05:20:08.984Z,3.40
2019-02-19T05:22:37.392Z,3.40
2019-02-19T05:25:07.373Z,3.40
2019-02-19T05:27:35.812Z,3.50
2019-02-19T05:30:06.052Z,3.40
2019-02-19T05:32:34.460Z,3.40
2019-02-19T05:35:03.090Z,3.50
2019-02-19T05:37:31.862Z,3.40
2019-02-19T05:40:00.264Z,3.40
2019-02-19T05:42:29.857Z,3.40
2019-02-19T05:44:58.253Z,3.40
2019-02-19T05:47:26.975Z,3.40
2019-02-19T05:49:55.401Z,3.40
2019-02-19T05:52:23.813Z,3.40
2019-02-19T05:54:54.004Z,3.40
2019-02-19T05:57:22.408Z,3.40
2019-02-19T05:59:51.212Z,3.40
2019-02-19T06:02:19.749Z,3.40
2019-02-19T06:04:48.157Z,3.40
2019-02-19T06:07:18.961Z,3.40
2019-02-19T06:09:47.761Z,3.40
2019-02-19T06:12:16.180Z,3.40
2019-02-19T06:14:44.652Z,3.40
2019-02-19T06:17:13.357Z,3.30
2019-02-19T06:19:43.140Z,3.40
2019-02-19T06:22:12.163Z,3.30
2019-02-19T06:24:40.632Z,3.30
2019-02-19T06:27:09.453Z,3.40
2019-02-19T06:29:40.356Z,3.30
2019-02-19T06:32:09.160Z,3.30
2019-02-19T06:34:37.560Z,3.40
2019-02-19T06:37:05.968Z,3.30
2019-02-19T06:39:34.381Z,3.30
2019-02-19T06:42:03.148Z,3.30
2019-02-19T06:44:31.576Z,3.30
2019-02-19T06:47:06.644Z,3.30
2019-02-19T06:49:31.307Z,3.30
2019-02-19T06:51:59.709Z,3.30
2019-02-19T06:54:28.113Z,3.30
2019-02-19T06:56:56.628Z,3.30
2019-02-19T06:59:25.165Z,3.30
2019-02-19T07:02:13.125Z,3.30
2019-02-19T07:04:43.186Z,3.30
2019-02-19T07:07:11.594Z,3.30
2019-02-19T07:09:40.953Z,3.40
2019-02-19T07:12:09.929Z,3.40
2019-02-19T07:14:38.705Z,3.40
2019-02-19T07:17:15.283Z,3.40
2019-02-19T07:19:38.228Z,3.40
2019-02-19T07:22:06.641Z,3.40
2019-02-19T07:24:35.045Z,3.40
2019-02-19T07:27:03.471Z,3.40
2019-02-19T07:29:31.875Z,3.40
2019-02-19T07:32:03.377Z,3.40
2019-02-19T07:34:33.960Z,3.50
2019-02-19T07:37:04.452Z,3.50
2019-02-19T07:39:32.906Z,3.50
2019-02-19T07:42:01.500Z,3.50
2019-02-19T07:44:29.900Z,3.50
2019-02-19T07:46:58.596Z,3.50
2019-02-19T07:49:26.997Z,3.50
2019-02-19T07:51:55.429Z,3.50
2019-02-19T07:54:23.845Z,3.50
2019-02-19T07:56:52.471Z,3.60
2019-02-19T07:59:20.882Z,3.60
2019-02-19T08:01:49.319Z,3.60
2019-02-19T08:04:17.847Z,3.60
2019-02-19T08:06:46.246Z,3.60
2019-02-19T08:09:14.648Z,3.60
2019-02-19T08:11:43.289Z,3.70
2019-02-19T08:14:12.657Z,3.70
2019-02-19T08:16:41.362Z,3.70
2019-02-19T08:19:09.771Z,3.70
2019-02-19T08:21:38.174Z,3.60
2019-02-19T08:24:06.588Z,3.60
2019-02-19T08:26:35.396Z,3.60
2019-02-19T08:29:13.221Z,3.60
2019-02-19T08:31:34.018Z,3.60
2019-02-19T08:34:02.438Z,3.60
2019-02-19T08:36:31.815Z,3.60
2019-02-19T08:39:00.214Z,3.60
2019-02-19T08:41:29.242Z,3.60
2019-02-19T08:43:57.950Z,3.60
2019-02-19T08:46:26.352Z,3.60
2019-02-19T08:48:54.911Z,3.70
2019-02-19T08:51:23.313Z,3.70
2019-02-19T08:53:52.332Z,3.60
2019-02-19T08:56:20.785Z,3.60
2019-02-19T08:58:49.248Z,3.60
2019-02-19T09:01:17.716Z,3.70
2019-02-19T09:03:46.468Z,3.70
2019-02-19T09:06:14.887Z,3.70
2019-02-19T09:08:43.289Z,3.70
2019-02-19T09:11:11.696Z,3.70
2019-02-19T09:13:40.114Z,3.80
2019-02-19T09:16:09.521Z,3.90
2019-02-19T09:18:38.609Z,3.90
2019-02-19T09:21:07.101Z,3.90
2019-02-19T09:23:35.488Z,3.90
2019-02-19T09:26:04.269Z,3.90
2019-02-19T09:28:33.657Z,3.90
2019-02-19T09:31:02.090Z,3.90
2019-02-19T09:33:30.492Z,3.90
2019-02-19T09:35:58.899Z,3.90
2019-02-19T09:38:27.312Z,3.90
2019-02-19T09:40:55.784Z,4.00
2019-02-19T09:43:24.188Z,4.00
2019-02-19T09:45:52.635Z,4.10
2019-02-19T09:48:21.028Z,4.10
2019-02-19T09:50:49.436Z,4.00
2019-02-19T09:53:17.850Z,4.00
2019-02-19T09:55:46.294Z,4.10
2019-02-19T09:58:14.696Z,4.10
2019-02-19T10:00:43.200Z,4.20
2019-02-19T10:03:11.681Z,4.20
2019-02-19T10:05:40.091Z,4.20
2019-02-19T10:08:08.497Z,4.20
2019-02-19T10:10:36.909Z,4.20
2019-02-19T10:13:05.353Z,4.30
2019-02-19T10:15:33.761Z,4.30
2019-02-19T10:18:09.967Z,4.30
2019-02-19T10:20:32.235Z,4.30
2019-02-19T10:23:00.689Z,4.30
2019-02-19T10:25:29.125Z,4.30
2019-02-19T10:27:57.604Z,4.30
2019-02-19T10:30:26.004Z,4.60
2019-02-19T10:32:54.411Z,4.70
2019-02-19T10:35:22.818Z,4.70
2019-02-19T10:37:51.771Z,4.60
2019-02-19T10:40:21.092Z,4.50
2019-02-19T10:42:49.497Z,4.60
2019-02-19T10:45:24.994Z,4.60
2019-02-19T10:47:53.389Z,4.70
2019-02-19T10:50:21.821Z,4.60
2019-02-19T10:52:51.702Z,4.70
2019-02-19T10:55:20.405Z,4.60
2019-02-19T10:57:48.816Z,4.70
2019-02-19T11:00:19.320Z,4.80
2019-02-19T11:02:47.754Z,4.80
2019-02-19T11:05:16.228Z,4.80
2019-02-19T11:07:44.632Z,4.80
2019-02-19T11:10:14.692Z,5.00
2019-02-19T11:12:43.104Z,5.20
2019-02-19T11:15:12.970Z,5.50
2019-02-19T11:17:41.408Z,5.70
2019-02-19T11:20:12.152Z,6.00
2019-02-19T11:22:40.571Z,6.10
2019-02-19T11:25:11.501Z,6.00
2019-02-19T11:27:39.972Z,6.10
2019-02-19T11:30:20.425Z,6.50
2019-02-19T11:32:49.165Z,7.10
2019-02-19T11:35:17.568Z,7.40
2019-02-19T11:37:45.974Z,8.00
2019-02-19T11:40:14.844Z,7.80
2019-02-19T11:42:43.289Z,7.20
2019-02-19T11:45:14.200Z,6.80
2019-02-19T11:47:42.592Z,6.60
2019-02-19T11:50:12.567Z,6.70
2019-02-19T11:52:41.042Z,6.70
2019-02-19T11:55:11.996Z,6.60
2019-02-19T11:57:40.440Z,6.30
2019-02-19T12:00:13.674Z,6.40
2019-02-19T12:02:42.077Z,6.50
2019-02-19T12:05:10.480Z,6.40
2019-02-19T12:07:38.890Z,6.40
2019-02-19T12:10:08.844Z,6.30
2019-02-19T12:12:37.251Z,6.50
2019-02-19T12:15:08.688Z,6.70
2019-02-19T12:17:37.090Z,6.60
2019-02-19T12:20:07.729Z,6.40
2019-02-19T12:22:36.233Z,6.30
2019-02-19T12:25:05.969Z,6.20
2019-02-19T12:27:34.370Z,6.20
2019-02-19T12:30:03.041Z,6.00
2019-02-19T12:32:31.525Z,6.00
2019-02-19T12:34:59.949Z,6.00
2019-02-19T12:37:28.370Z,6.00
2019-02-19T12:39:56.818Z,5.90
2019-02-19T12:42:25.234Z,5.90
2019-02-19T12:44:53.640Z,5.90
2019-02-19T12:47:22.069Z,6.00
2019-02-19T12:49:50.612Z,6.00
2019-02-19T12:52:19.100Z,6.00
2019-02-19T12:54:47.514Z,6.00
2019-02-19T12:57:15.917Z,6.10
2019-02-19T12:59:44.357Z,6.10
2019-02-19T13:02:12.788Z,6.10
2019-02-19T13:04:41.187Z,6.10
2019-02-19T13:07:09.593Z,6.10
2019-02-19T13:09:38.001Z,6.10
2019-02-19T13:12:06.425Z,6.10
2019-02-19T13:14:34.870Z,6.10
2019-02-19T13:17:03.276Z,6.10
2019-02-19T13:19:32.124Z,6.10
2019-02-19T13:22:00.593Z,6.10
2019-02-19T13:24:29.032Z,6.20
2019-02-19T13:26:57.441Z,6.20
2019-02-19T13:29:25.843Z,6.20
2019-02-19T13:31:54.245Z,6.10
2019-02-19T13:34:22.666Z,6.20
2019-02-19T13:36:51.097Z,6.10
2019-02-19T13:39:19.557Z,6.20
2019-02-19T13:41:48.024Z,6.20
2019-02-19T13:44:16.429Z,6.20
2019-02-19T13:46:44.848Z,6.30
2019-02-19T13:49:13.327Z,6.30
2019-02-19T13:51:41.749Z,6.30
2019-02-19T13:54:11.796Z,6.30
2019-02-19T13:56:40.200Z,6.40
2019-02-19T13:59:08.600Z,6.40
2019-02-19T14:01:37.100Z,6.40
2019-02-19T14:04:05.506Z,6.40
2019-02-19T14:06:33.901Z,6.50
2019-02-19T14:09:02.384Z,6.50
2019-02-19T14:11:30.852Z,6.50
2019-02-19T14:14:00.916Z,6.50
2019-02-19T14:16:30.960Z,6.50
2019-02-19T14:19:01.001Z,6.50
2019-02-19T14:21:45.934Z,6.50
2019-02-19T14:24:31.312Z,6.50
2019-02-19T14:27:07.316Z,6.50
2019-02-19T14:29:52.444Z,6.50
2019-02-19T14:32:22.485Z,6.50
2019-02-19T14:35:08.850Z,6.50
2019-02-19T14:37:55.072Z,6.50
2019-02-19T14:40:40.180Z,6.50
2019-02-19T14:43:16.444Z,6.40
2019-02-19T14:45:52.367Z,6.40
2019-02-19T14:48:22.398Z,6.40
2019-02-19T14:51:10.504Z,6.40
2019-02-19T14:53:43.272Z,6.50
2019-02-19T14:56:13.306Z,6.40
2019-02-19T14:58:46.292Z,6.40
2019-02-19T15:01:32.708Z,6.40
2019-02-19T15:04:11.617Z,6.40
2019-02-19T15:06:56.708Z,6.40
2019-02-19T15:09:29.577Z,6.40
2019-02-19T15:12:02.361Z,6.40
2019-02-19T15:14:32.409Z,6.40
2019-02-19T15:17:17.548Z,6.40
2019-02-19T15:19:59.572Z,6.50
2019-02-19T15:22:45.750Z,6.50
2019-02-19T15:25:31.793Z,6.50
2019-02-19T15:28:10.921Z,6.50
2019-02-19T15:30:49.743Z,6.40
2019-02-19T15:33:35.973Z,6.40
2019-02-19T15:36:06.029Z,6.40
2019-02-19T15:38:38.984Z,6.40
2019-02-19T15:41:11.997Z,6.40
2019-02-19T15:43:44.768Z,6.40
2019-02-19T15:46:17.980Z,6.40
2019-02-19T15:48:48.092Z,6.40
2019-02-19T15:51:30.096Z,6.40
2019-02-19T15:54:16.401Z,6.40
2019-02-19T15:56:55.496Z,6.40
2019-02-19T15:59:28.285Z,6.40
2019-02-19T16:02:14.500Z,6.50
2019-02-19T16:04:44.545Z,6.50
2019-02-19T16:07:23.605Z,6.50
2019-02-19T16:09:59.580Z,6.50
2019-02-19T16:12:29.637Z,6.50
2019-02-19T16:15:05.688Z,6.60
2019-02-19T16:17:41.783Z,6.50
2019-02-19T16:20:14.775Z,6.60
2019-02-19T16:22:44.800Z,6.60
2019-02-19T16:25:31.411Z,6.60
2019-02-19T16:28:09.922Z,6.60
2019-02-19T16:30:48.709Z,6.50
2019-02-19T16:33:37.192Z,6.60
2019-02-19T16:36:23.498Z,6.60
2019-02-19T16:39:09.556Z,6.50
2019-02-19T16:41:39.621Z,6.50
2019-02-19T16:44:09.663Z,6.40
2019-02-19T16:46:42.820Z,6.30
2019-02-19T16:49:12.878Z,6.30
2019-02-19T16:51:42.906Z,6.30
2019-02-19T16:54:12.956Z,6.20
2019-02-19T16:56:45.789Z,6.20
2019-02-19T16:59:18.628Z,6.10
2019-02-19T17:02:00.490Z,6.10
2019-02-19T17:04:30.560Z,6.10
2019-02-19T17:07:09.617Z,6.00
2019-02-19T17:09:39.757Z,6.00
2019-02-19T17:12:09.820Z,5.90
2019-02-19T17:14:45.898Z,5.90
2019-02-19T17:17:15.945Z,5.90
2019-02-19T17:19:52.038Z,5.90
2019-02-19T17:22:24.610Z,5.90
2019-02-19T17:25:03.793Z,5.90
2019-02-19T17:27:33.816Z,5.90
2019-02-19T17:30:10.175Z,5.90
2019-02-19T17:32:45.748Z,5.90
2019-02-19T17:35:15.831Z,5.90
2019-02-19T17:37:48.576Z,5.90
2019-02-19T17:40:21.478Z,5.90
2019-02-19T17:42:54.265Z,5.90
2019-02-19T17:45:24.308Z,5.90
2019-02-19T17:48:03.672Z,5.80
2019-02-19T17:50:48.860Z,5.80
2019-02-19T17:53:18.900Z,5.80
2019-02-19T17:55:51.391Z,5.80
2019-02-19T17:58:21.428Z,5.80
2019-02-19T18:00:51.472Z,5.80
2019-02-19T18:03:33.917Z,5.80
2019-02-19T18:06:19.077Z,5.80
2019-02-19T18:08:49.128Z,5.80
2019-02-19T18:11:19.175Z,5.80
2019-02-19T18:14:05.469Z,5.80
2019-02-19T18:16:35.526Z,5.80
2019-02-19T18:19:03.917Z,5.80
2019-02-19T18:21:32.313Z,5.80
2019-02-19T18:24:00.746Z,5.80
2019-02-19T18:26:29.145Z,5.80
2019-02-19T18:28:57.553Z,5.70
2019-02-19T18:31:25.989Z,5.70
2019-02-19T18:33:54.395Z,5.70
2019-02-19T18:36:22.822Z,5.80
2019-02-19T18:38:51.232Z,5.80
2019-02-19T18:41:19.704Z,5.70
2019-02-19T18:43:48.105Z,5.70
2019-02-19T18:46:16.557Z,5.80
2019-02-19T18:48:45.082Z,5.80
2019-02-19T18:51:13.471Z,5.80
2019-02-19T18:53:41.864Z,5.80
2019-02-19T18:56:10.269Z,5.70
2019-02-19T18:58:38.680Z,5.70
2019-02-19T19:01:08.577Z,5.80
2019-02-19T19:03:37.189Z,5.80
2019-02-19T19:06:05.596Z,5.70
2019-02-19T19:08:34.025Z,5.70
2019-02-19T19:11:02.423Z,5.70
2019-02-19T19:13:30.857Z,5.70
2019-02-19T19:15:59.325Z,5.70
2019-02-19T19:18:27.726Z,5.70
2019-02-19T19:20:56.160Z,5.70
2019-02-19T19:23:24.544Z,5.70
2019-02-19T19:25:52.967Z,5.80
2019-02-19T19:28:21.357Z,5.70
2019-02-19T19:30:49.857Z,5.70
2019-02-19T19:33:18.329Z,5.70
2019-02-19T19:35:46.730Z,5.70
2019-02-19T19:38:15.157Z,5.70
2019-02-19T19:40:43.560Z,5.60
2019-02-19T19:43:11.958Z,5.60
2019-02-19T19:45:40.360Z,5.60
2019-02-19T19:48:08.756Z,5.60
2019-02-19T19:50:37.202Z,5.60
2019-02-19T19:53:05.627Z,5.60
2019-02-19T19:55:34.028Z,5.60
2019-02-19T19:58:02.453Z,5.60
2019-02-19T20:00:30.853Z,5.60
2019-02-19T20:02:59.280Z,5.60
2019-02-19T20:05:27.684Z,5.60
2019-02-19T20:07:56.088Z,5.60
2019-02-19T20:10:24.495Z,5.60
2019-02-19T20:12:52.914Z,5.60
2019-02-19T20:15:21.325Z,5.60
2019-02-19T20:17:49.723Z,5.60
2019-02-19T20:20:18.211Z,5.60
2019-02-19T20:22:46.612Z,5.60
2019-02-19T20:25:15.051Z,5.50
2019-02-19T20:27:43.463Z,5.50
2019-02-19T20:30:16.541Z,5.50
2019-02-19T20:32:44.947Z,5.50
2019-02-19T20:35:13.350Z,5.50
2019-02-19T20:37:41.743Z,5.50
2019-02-19T20:40:11.388Z,5.50
2019-02-19T20:42:39.869Z,5.40
2019-02-19T20:45:10.518Z,5.40
2019-02-19T20:47:38.954Z,5.40
2019-02-19T20:50:09.718Z,5.40
2019-02-19T20:52:38.118Z,5.40
2019-02-19T20:55:09.299Z,5.40
2019-02-19T20:57:37.097Z,5.40
2019-02-19T21:00:09.752Z,5.40
2019-02-19T21:02:38.140Z,5.30
2019-02-19T21:05:09.256Z,5.30
2019-02-19T21:07:37.681Z,5.40
2019-02-19T21:10:14.420Z,5.40
2019-02-19T21:12:42.840Z,5.30
2019-02-19T21:15:11.238Z,5.40
2019-02-19T21:17:39.653Z,5.30
2019-02-19T21:20:09.937Z,5.30
2019-02-19T21:22:38.336Z,5.30
2019-02-19T21:25:08.473Z,5.30
2019-02-19T21:27:36.904Z,5.30
2019-02-19T21:30:15.660Z,5.30
2019-02-19T21:32:44.101Z,5.30
2019-02-19T21:35:12.503Z,5.20
2019-02-19T21:37:40.997Z,5.30
2019-02-19T21:40:16.256Z,5.30
2019-02-19T21:42:44.650Z,5.30
2019-02-19T21:45:14.096Z,5.30
2019-02-19T21:47:42.517Z,5.30
2019-02-19T21:50:12.220Z,5.30
2019-02-19T21:52:40.694Z,5.30
2019-02-19T21:55:10.485Z,5.30
2019-02-19T21:57:38.885Z,5.30
2019-02-19T22:00:10.094Z,5.30
2019-02-19T22:02:37.835Z,5.30
2019-02-19T22:05:07.264Z,5.30
2019-02-19T22:07:35.670Z,5.30
2019-02-19T22:10:06.662Z,5.20
2019-02-19T22:12:35.060Z,5.20
2019-02-19T22:15:03.952Z,5.30
2019-02-19T22:17:32.424Z,5.30
2019-02-19T22:20:03.218Z,5.20
2019-02-19T22:22:30.969Z,5.20
2019-02-19T22:24:59.372Z,5.10
2019-02-19T22:27:27.820Z,5.10
2019-02-19T22:29:56.200Z,5.00
2019-02-19T22:32:24.689Z,5.00
2019-02-19T22:34:53.089Z,5.00
2019-02-19T22:37:21.502Z,5.00
2019-02-19T22:39:49.932Z,5.00
2019-02-19T22:42:18.342Z,5.00
2019-02-19T22:44:46.804Z,4.90
2019-02-19T22:47:15.257Z,5.00
2019-02-19T22:49:43.662Z,5.00
2019-02-19T22:52:12.750Z,5.00
2019-02-19T22:54:42.946Z,5.00
2019-02-19T22:57:11.361Z,4.90
2019-02-19T22:59:39.775Z,5.00
2019-02-19T23:02:20.336Z,4.90
2019-02-19T23:04:48.821Z,4.90
2019-02-19T23:07:17.222Z,5.00
2019-02-19T23:09:45.722Z,4.90
2019-02-19T23:12:14.116Z,4.90
2019-02-19T23:14:42.524Z,5.00
2019-02-19T23:17:10.924Z,5.00
2019-02-19T23:19:39.333Z,5.00
2019-02-19T23:22:07.772Z,5.00
2019-02-19T23:24:36.152Z,5.00
2019-02-19T23:27:04.567Z,5.00
2019-02-19T23:29:32.954Z,5.10
2019-02-19T23:32:01.390Z,5.00
2019-02-19T23:34:29.817Z,5.00
2019-02-19T23:36:59.784Z,5.00
2019-02-19T23:39:28.188Z,5.10
2019-02-19T23:41:56.598Z,5.10
2019-02-19T23:44:25.007Z,5.10
2019-02-19T23:46:53.428Z,5.10
2019-02-19T23:49:21.839Z,5.10
2019-02-19T23:51:50.237Z,5.10
2019-02-19T23:54:18.636Z,5.10
2019-02-19T23:56:47.953Z,5.10
2019-02-19T23:59:16.401Z,5.10
